Maugansville, MD (21767)

12:17 PM EDT on August 30, 2014 (GMT -0400)
N. Hagerstown, MD | Change Station
CLOSE
Current Station
Personal Weather Station
Location: Hagerstown, MD
Elevation: 610 ft
Nearby Weather Stations

Elev 610 ft 39.67 °N, 77.73 °W | Updated 7 minutes ago

Overcast
Overcast
77.5 °F
Feels Like 79 °F
N
5.8
Wind Variable Wind from ENE

Today
High -- | Low -- °F
--% Chance of Precip.
Yesterday
High -- | Low -- °F
Precip. -- in
6:37 AM 7:45 PM
Waxing Crescent, 23% visible
Pressure 30.22 in
Visibility 10.0 miles
Clouds Mostly Cloudy 1800 ft
Overcast 2500 ft
Heat Index 79 °F
Dew Point 70 °F
Humidity 77%
Rainfall 0.00 in
Snow Depth Not available.
UV 3 out of 12
Pollen 9.30 out of 12
Air Quality Not available.
Flu Activity Not available.
METAR KHGR 301553Z 16011KT 10SM BKN018 OVC025 23/18 A3020 RMK AO2 SLP233 T02330183

More Conditions Fewer Conditions

Pressure 30.22 in
Visibility 10.0 miles
Clouds Mostly Cloudy 1800 ft
Overcast 2500 ft
Heat Index 79 °F
Dew Point 70 °F
Humidity 77%
Rainfall 0.00 in
Snow Depth Not available.
UV 3 out of 12
Pollen 9.30 out of 12
Air Quality Not available.
Flu Activity Not available.
METAR KHGR 301553Z 16011KT 10SM BKN018 OVC025 23/18 A3020 RMK AO2 SLP233 T02330183

More Conditions Fewer Conditions

10-Day Weather Forecast

Almanac

Astronomy

Aug. 30, 2014 Rise Set
Actual Time 6:37 AM EDT 7:45 PM EDT
Civil Twilight 6:09 AM EDT 8:12 PM EDT
Nautical Twilight 5:36 AM EDT 8:46 PM EDT
Astronomical Twilight 5:01 AM EDT 9:20 PM EDT
Moon 11:21 AM EDT 10:19 PM EDT
Length of Visible Light 14h 03m
Length of Day
13h 08m
Tomorrow will be 2m 29s shorter.
Waxing Crescent, 23% of the Moon is Illuminated
Today
Waxing Crescent
Sep 2
First Quarter
Sep 8
Full
Sep 15
Last Quarter
Sep 24
New

Today's Extremes

State Highs State Lows

Community

WunderPhotos

Upload Photos

1,748,556 photos uploaded!

WunderBlogs® & News

Nearby

Snow Depth

Station Depth Elevation
No new snow has been reported.

Earthquake Activity

City Distance Mag. Time & Date
No recent earthquake activity has been reported nearby.
Minimum magnitude displayed is 2.5.

Coastal Water Temperatures

Place Temperature
No Stations Reporting

Nearby Weather Stations